Time,TemperatureF,DewpointF,PressureIn,WindDirection,WindDirectionDegrees,WindSpeedMPH,WindSpeedGustMPH,Humidity,HourlyPrecipIn,Conditions,Clouds,dailyrainin,SoftwareType,DateUTC
2013-03-13 00:00:00,52.5,49.0,29.70,SSW,198,2.0,2.0,88,0.00,,,0.14,Wunderground v.1.15,2013-03-13 04:00:00,
2013-03-13 00:01:00,52.5,49.0,29.69,SSW,192,4.0,4.0,88,0.00,,,0.00,Wunderground v.1.15,2013-03-13 04:01:00,
2013-03-13 00:07:00,52.4,48.9,29.69,SSW,194,4.0,4.0,88,0.00,,,0.00,Wunderground v.1.15,2013-03-13 04:07:00,
2013-03-13 00:08:00,52.4,48.9,29.69,SSW,194,0.0,4.0,88,0.00,,,0.00,Wunderground v.1.15,2013-03-13 04:08:00,
2013-03-13 00:13:00,52.4,48.9,29.70,SSW,200,1.0,3.0,88,0.00,,,0.00,Wunderground v.1.15,2013-03-13 04:13:00,
2013-03-13 00:18:00,52.4,48.9,29.69,SSW,211,0.0,4.0,88,0.00,,,0.00,Wunderground v.1.15,2013-03-13 04:18:00,
2013-03-13 00:24:00,52.3,48.9,29.69,SSW,212,0.0,2.0,88,0.00,,,0.00,Wunderground v.1.15,2013-03-13 04:24:00,
2013-03-13 00:29:00,52.2,48.8,29.69,WSW,252,0.0,3.0,88,0.00,,,0.00,Wunderground v.1.15,2013-03-13 04:29:00,
2013-03-13 00:35:00,52.1,48.7,29.70,WSW,251,0.0,2.0,88,0.00,,,0.00,Wunderground v.1.15,2013-03-13 04:35:00,
2013-03-13 00:41:00,52.1,48.7,29.70,WSW,251,2.0,2.0,88,0.00,,,0.00,Wunderground v.1.15,2013-03-13 04:41:00,
2013-03-13 00:47:00,52.1,48.7,29.70,WSW,250,0.0,2.0,88,0.00,,,0.00,Wunderground v.1.15,2013-03-13 04:47:00,
2013-03-13 00:52:00,52.1,48.7,29.70,WSW,250,0.0,3.0,88,0.00,,,0.00,Wunderground v.1.15,2013-03-13 04:52:00,
2013-03-13 00:58:00,52.0,48.6,29.70,WSW,238,3.0,4.0,88,0.00,,,0.00,Wunderground v.1.15,2013-03-13 04:58:00,
2013-03-13 01:03:00,51.9,48.5,29.70,West,272,2.0,5.0,88,0.00,,,0.00,Wunderground v.1.15,2013-03-13 05:03:00,
2013-03-13 01:08:00,51.8,48.4,29.70,WNW,282,3.0,9.0,88,0.00,,,0.00,Wunderground v.1.15,2013-03-13 05:08:00,
2013-03-13 01:13:00,51.4,48.0,29.69,West,261,2.0,7.0,88,0.00,,,0.00,Wunderground v.1.15,2013-03-13 05:13:00,
2013-03-13 01:19:00,51.1,47.7,29.69,West,271,5.0,7.0,88,0.00,,,0.00,Wunderground v.1.15,2013-03-13 05:19:00,
2013-03-13 01:25:00,50.7,47.0,29.69,WNW,292,10.0,10.0,87,0.00,,,0.00,Wunderground v.1.15,2013-03-13 05:25:00,
2013-03-13 01:30:00,50.1,46.4,29.69,WNW,288,5.0,8.0,87,0.00,,,0.00,Wunderground v.1.15,2013-03-13 05:30:00,
2013-03-13 01:35:00,49.2,44.9,29.70,WNW,302,6.0,10.0,85,0.00,,,0.00,Wunderground v.1.15,2013-03-13 05:35:00,
2013-03-13 01:42:00,48.1,43.8,29.70,West,277,5.0,17.0,85,0.00,,,0.00,Wunderground v.1.15,2013-03-13 05:42:00,
2013-03-13 01:48:00,47.5,42.9,29.70,WNW,283,4.0,17.0,84,0.00,,,0.00,Wunderground v.1.15,2013-03-13 05:48:00,
2013-03-13 01:53:00,47.2,42.6,29.70,WNW,288,8.0,11.0,84,0.00,,,0.00,Wunderground v.1.15,2013-03-13 05:53:00,
2013-03-13 01:58:00,46.9,42.3,29.70,NW,312,6.0,11.0,84,0.00,,,0.00,Wunderground v.1.15,2013-03-13 05:58:00,
2013-03-13 02:03:00,46.7,42.1,29.70,NW,309,3.0,11.0,84,0.00,,,0.00,Wunderground v.1.15,2013-03-13 06:03:00,
2013-03-13 02:08:00,46.4,41.8,29.70,WNW,288,2.0,13.0,84,0.00,,,0.00,Wunderground v.1.15,2013-03-13 06:08:00,
2013-03-13 02:13:00,46.2,41.6,29.70,NW,318,5.0,11.0,84,0.00,,,0.00,Wunderground v.1.15,2013-03-13 06:13:00,
2013-03-13 02:18:00,46.0,41.4,29.71,NNW,345,4.0,11.0,84,0.00,,,0.00,Wunderground v.1.15,2013-03-13 06:18:00,
2013-03-13 02:23:00,45.8,41.2,29.71,NW,321,1.0,8.0,84,0.00,,,0.00,Wunderground v.1.15,2013-03-13 06:23:00,
2013-03-13 02:28:00,45.7,41.1,29.71,NW,311,5.0,12.0,84,0.00,,,0.00,Wunderground v.1.15,2013-03-13 06:28:00,
2013-03-13 02:33:00,45.6,41.0,29.71,NW,304,6.0,8.0,84,0.00,,,0.00,Wunderground v.1.15,2013-03-13 06:33:00,
2013-03-13 02:38:00,45.4,40.8,29.71,NNW,329,5.0,16.0,84,0.00,,,0.00,Wunderground v.1.15,2013-03-13 06:38:00,
2013-03-13 02:43:00,45.3,40.7,29.72,West,279,3.0,9.0,84,0.00,,,0.00,Wunderground v.1.15,2013-03-13 06:43:00,
2013-03-13 02:48:00,45.1,40.6,29.72,WNW,290,2.0,9.0,84,0.00,,,0.00,Wunderground v.1.15,2013-03-13 06:48:00,
2013-03-13 02:53:00,45.0,40.5,29.72,West,273,6.0,10.0,84,0.00,,,0.00,Wunderground v.1.15,2013-03-13 06:53:00,
2013-03-13 02:58:00,45.0,40.5,29.72,WNW,292,6.0,10.0,84,0.00,,,0.00,Wunderground v.1.15,2013-03-13 06:58:00,
2013-03-13 03:03:00,44.9,40.4,29.72,NNW,329,8.0,9.0,84,0.00,,,0.00,Wunderground v.1.15,2013-03-13 07:03:00,
2013-03-13 03:08:00,44.7,40.2,29.72,West,280,8.0,10.0,84,0.00,,,0.00,Wunderground v.1.15,2013-03-13 07:08:00,
2013-03-13 03:13:00,44.4,39.6,29.72,West,279,2.0,12.0,83,0.00,,,0.00,Wunderground v.1.15,2013-03-13 07:13:00,
2013-03-13 03:18:00,44.2,39.4,29.72,NNW,327,3.0,12.0,83,0.00,,,0.00,Wunderground v.1.15,2013-03-13 07:18:00,
2013-03-13 03:23:00,44.1,39.3,29.71,NW,325,4.0,6.0,83,0.00,,,0.00,Wunderground v.1.15,2013-03-13 07:23:00,
2013-03-13 03:28:00,44.0,39.2,29.71,NW,304,3.0,8.0,83,0.00,,,0.00,Wunderground v.1.15,2013-03-13 07:28:00,
2013-03-13 03:33:00,43.8,39.0,29.71,NNW,329,7.0,10.0,83,0.00,,,0.00,Wunderground v.1.15,2013-03-13 07:33:00,
2013-03-13 03:38:00,43.7,38.6,29.70,NW,320,12.0,14.0,82,0.00,,,0.00,Wunderground v.1.15,2013-03-13 07:38:00,
2013-03-13 03:43:00,43.5,38.4,29.70,NW,325,5.0,9.0,82,0.00,,,0.00,Wunderground v.1.15,2013-03-13 07:43:00,
2013-03-13 03:48:00,43.2,38.1,29.70,West,277,4.0,12.0,82,0.00,,,0.00,Wunderground v.1.15,2013-03-13 07:48:00,
2013-03-13 03:53:00,43.0,37.9,29.70,NW,306,4.0,10.0,82,0.00,,,0.00,Wunderground v.1.15,2013-03-13 07:53:00,
2013-03-13 03:58:00,42.7,37.3,29.70,NW,306,4.0,10.0,81,0.00,,,0.00,Wunderground v.1.15,2013-03-13 07:58:00,
2013-03-13 04:03:00,42.5,37.1,29.70,North,349,7.0,12.0,81,0.00,,,0.00,Wunderground v.1.15,2013-03-13 08:03:00,
2013-03-13 04:08:00,42.3,36.9,29.71,NW,319,2.0,14.0,81,0.00,,,0.00,Wunderground v.1.15,2013-03-13 08:08:00,
2013-03-13 04:13:00,42.2,36.8,29.72,NW,323,5.0,8.0,81,0.00,,,0.00,Wunderground v.1.15,2013-03-13 08:13:00,
2013-03-13 04:18:00,42.0,36.6,29.72,NNW,332,3.0,9.0,81,0.00,,,0.00,Wunderground v.1.15,2013-03-13 08:18:00,
2013-03-13 04:23:00,42.0,36.6,29.72,WNW,294,4.0,9.0,81,0.00,,,0.00,Wunderground v.1.15,2013-03-13 08:23:00,
2013-03-13 04:28:00,41.9,36.8,29.72,West,276,7.0,10.0,82,0.00,,,0.00,Wunderground v.1.15,2013-03-13 08:28:00,
2013-03-13 04:33:00,41.8,36.7,29.73,NNW,333,5.0,9.0,82,0.00,,,0.00,Wunderground v.1.15,2013-03-13 08:33:00,
2013-03-13 04:38:00,41.8,36.4,29.73,NW,304,6.0,10.0,81,0.00,,,0.00,Wunderground v.1.15,2013-03-13 08:38:00,
2013-03-13 04:43:00,41.8,36.4,29.73,NNW,330,9.0,11.0,81,0.00,,,0.00,Wunderground v.1.15,2013-03-13 08:43:00,
2013-03-13 04:48:00,41.8,36.4,29.73,NW,313,5.0,13.0,81,0.00,,,0.00,Wunderground v.1.15,2013-03-13 08:48:00,
2013-03-13 04:53:00,41.8,36.1,29.73,West,272,3.0,10.0,80,0.00,,,0.00,Wunderground v.1.15,2013-03-13 08:53:00,
2013-03-13 04:58:00,41.7,37.2,29.73,NNW,330,7.0,14.0,84,0.00,,,0.00,Wunderground v.1.15,2013-03-13 08:58:00,
2013-03-13 05:03:00,41.6,35.6,29.73,WNW,298,4.0,10.0,79,0.00,,,0.00,Wunderground v.1.15,2013-03-13 09:03:00,
2013-03-13 05:08:00,41.5,35.5,29.73,North,349,10.0,13.0,79,0.00,,,0.00,Wunderground v.1.15,2013-03-13 09:08:00,
2013-03-13 05:13:00,41.2,35.2,29.73,NW,311,7.0,11.0,79,0.00,,,0.00,Wunderground v.1.15,2013-03-13 09:13:00,
2013-03-13 05:18:00,41.0,35.0,29.73,NW,319,7.0,11.0,79,0.00,,,0.00,Wunderground v.1.15,2013-03-13 09:18:00,
2013-03-13 05:23:00,40.6,34.6,29.73,WNW,288,8.0,11.0,79,0.00,,,0.00,Wunderground v.1.15,2013-03-13 09:23:00,
2013-03-13 05:28:00,40.4,34.1,29.73,WNW,303,4.0,12.0,78,0.00,,,0.00,Wunderground v.1.15,2013-03-13 09:28:00,
2013-03-13 05:33:00,40.2,34.2,29.72,WNW,303,9.0,9.0,79,0.00,,,0.00,Wunderground v.1.15,2013-03-13 09:33:00,
2013-03-13 05:38:00,40.0,34.0,29.73,WNW,292,5.0,9.0,79,0.00,,,0.00,Wunderground v.1.15,2013-03-13 09:38:00,
2013-03-13 05:43:00,39.8,33.8,29.73,West,276,8.0,16.0,79,0.00,,,0.00,Wunderground v.1.15,2013-03-13 09:43:00,
2013-03-13 05:48:00,39.7,33.7,29.73,NW,309,3.0,16.0,79,0.00,,,0.00,Wunderground v.1.15,2013-03-13 09:48:00,
2013-03-13 05:53:00,39.5,33.5,29.73,WNW,284,5.0,11.0,79,0.00,,,0.00,Wunderground v.1.15,2013-03-13 09:53:00,
2013-03-13 05:59:00,39.4,33.4,29.73,WNW,288,5.0,13.0,79,0.00,,,0.00,Wunderground v.1.15,2013-03-13 09:59:00,
2013-03-13 06:04:00,39.3,33.3,29.74,WSW,250,2.0,9.0,79,0.00,,,0.00,Wunderground v.1.15,2013-03-13 10:04:00,
2013-03-13 06:09:00,39.1,33.1,29.73,West,263,3.0,9.0,79,0.00,,,0.00,Wunderground v.1.15,2013-03-13 10:09:00,
2013-03-13 06:14:00,39.0,33.0,29.73,WNW,286,2.0,13.0,79,0.00,,,0.00,Wunderground v.1.15,2013-03-13 10:14:00,
2013-03-13 06:19:00,38.9,32.9,29.73,WNW,290,3.0,13.0,79,0.00,,,0.00,Wunderground v.1.15,2013-03-13 10:19:00,
2013-03-13 06:24:00,38.8,32.8,29.73,West,281,8.0,10.0,79,0.00,,,0.00,Wunderground v.1.15,2013-03-13 10:24:00,
2013-03-13 06:29:00,38.7,32.7,29.73,West,269,4.0,10.0,79,0.00,,,0.00,Wunderground v.1.15,2013-03-13 10:29:00,
2013-03-13 06:34:00,38.6,32.6,29.73,West,276,8.0,14.0,79,0.00,,,0.00,Wunderground v.1.15,2013-03-13 10:34:00,
2013-03-13 06:39:00,38.5,32.6,29.73,WNW,291,3.0,14.0,79,0.00,,,0.00,Wunderground v.1.15,2013-03-13 10:39:00,
2013-03-13 06:44:00,38.4,32.8,29.73,West,271,4.0,7.0,80,0.00,,,0.00,Wunderground v.1.15,2013-03-13 10:44:00,
2013-03-13 06:49:00,38.3,32.7,29.73,West,281,11.0,11.0,80,0.00,,,0.00,Wunderground v.1.15,2013-03-13 10:49:00,
2013-03-13 06:54:00,38.2,32.3,29.73,NW,314,7.0,11.0,79,0.00,,,0.00,Wunderground v.1.15,2013-03-13 10:54:00,
2013-03-13 06:59:00,38.1,32.2,29.73,WNW,292,8.0,11.0,79,0.00,,,0.00,Wunderground v.1.15,2013-03-13 10:59:00,
2013-03-13 07:04:00,38.0,32.1,29.73,West,281,3.0,7.0,79,0.00,,,0.00,Wunderground v.1.15,2013-03-13 11:04:00,
2013-03-13 07:09:00,37.9,31.7,29.72,West,272,6.0,11.0,78,0.00,,,0.00,Wunderground v.1.15,2013-03-13 11:09:00,
2013-03-13 07:14:00,37.8,31.6,29.72,NW,313,5.0,11.0,78,0.00,,,0.00,Wunderground v.1.15,2013-03-13 11:14:00,
2013-03-13 07:19:00,37.8,31.6,29.72,NNW,330,4.0,11.0,78,0.00,,,0.00,Wunderground v.1.15,2013-03-13 11:19:00,
2013-03-13 07:24:00,37.8,31.6,29.72,NW,319,4.0,8.0,78,0.00,,,0.00,Wunderground v.1.15,2013-03-13 11:24:00,
2013-03-13 07:29:00,37.9,31.3,29.72,NW,311,4.0,9.0,77,0.00,,,0.00,Wunderground v.1.15,2013-03-13 11:29:00,
2013-03-13 07:34:00,37.9,31.3,29.73,NW,317,6.0,11.0,77,0.00,,,0.00,Wunderground v.1.15,2013-03-13 11:34:00,
2013-03-13 07:39:00,38.0,31.7,29.73,NW,304,3.0,11.0,78,0.00,,,0.00,Wunderground v.1.15,2013-03-13 11:39:00,
2013-03-13 07:44:00,38.1,31.8,29.73,West,279,4.0,9.0,78,0.00,,,0.00,Wunderground v.1.15,2013-03-13 11:44:00,
2013-03-13 07:49:00,38.2,31.6,29.73,WNW,287,4.0,9.0,77,0.00,,,0.00,Wunderground v.1.15,2013-03-13 11:49:00,
2013-03-13 07:54:00,38.3,31.7,29.73,WNW,302,3.0,7.0,77,0.00,,,0.00,Wunderground v.1.15,2013-03-13 11:54:00,
2013-03-13 07:59:00,38.5,31.9,29.73,NW,310,4.0,11.0,77,0.00,,,0.00,Wunderground v.1.15,2013-03-13 11:59:00,
2013-03-13 08:04:00,38.7,31.8,29.73,NW,326,5.0,13.0,76,0.00,,,0.00,Wunderground v.1.15,2013-03-13 12:04:00,
2013-03-13 08:09:00,38.9,32.0,29.73,WNW,295,2.0,13.0,76,0.00,,,0.00,Wunderground v.1.15,2013-03-13 12:09:00,
2013-03-13 08:14:00,39.1,32.2,29.73,NW,314,2.0,12.0,76,0.00,,,0.00,Wunderground v.1.15,2013-03-13 12:14:00,
2013-03-13 08:19:00,39.3,31.7,29.73,NW,322,5.0,12.0,74,0.00,,,0.00,Wunderground v.1.15,2013-03-13 12:19:00,
2013-03-13 08:24:00,39.4,32.1,29.73,WNW,297,3.0,11.0,75,0.00,,,0.00,Wunderground v.1.15,2013-03-13 12:24:00,
2013-03-13 08:29:00,39.6,32.0,29.73,NW,315,7.0,11.0,74,0.00,,,0.00,Wunderground v.1.15,2013-03-13 12:29:00,
2013-03-13 08:34:00,39.8,32.5,29.73,NW,313,1.0,9.0,75,0.00,,,0.00,Wunderground v.1.15,2013-03-13 12:34:00,
2013-03-13 08:39:00,40.0,32.4,29.73,NNW,348,3.0,9.0,74,0.00,,,0.00,Wunderground v.1.15,2013-03-13 12:39:00,
2013-03-13 08:44:00,40.2,32.6,29.72,NW,315,1.0,11.0,74,0.00,,,0.00,Wunderground v.1.15,2013-03-13 12:44:00,
2013-03-13 08:49:00,40.4,32.4,29.72,NW,325,6.0,11.0,73,0.00,,,0.00,Wunderground v.1.15,2013-03-13 12:49:00,
2013-03-13 08:54:00,40.5,32.5,29.72,WSW,253,7.0,12.0,73,0.00,,,0.00,Wunderground v.1.15,2013-03-13 12:54:00,
2013-03-13 08:59:00,40.7,32.7,29.72,NW,319,2.0,12.0,73,0.00,,,0.00,Wunderground v.1.15,2013-03-13 12:59:00,
2013-03-13 09:04:00,40.8,32.8,29.72,NNW,331,7.0,11.0,73,0.00,,,0.00,Wunderground v.1.15,2013-03-13 13:04:00,
2013-03-13 09:09:00,41.0,33.0,29.72,WNW,303,5.0,11.0,73,0.00,,,0.00,Wunderground v.1.15,2013-03-13 13:09:00,
2013-03-13 09:14:00,41.2,33.2,29.72,West,270,6.0,8.0,73,0.00,,,0.00,Wunderground v.1.15,2013-03-13 13:14:00,
2013-03-13 09:19:00,41.3,32.6,29.72,WNW,288,4.0,11.0,71,0.00,,,0.00,Wunderground v.1.15,2013-03-13 13:19:00,
2013-03-13 09:24:00,41.4,32.7,29.72,NNW,334,7.0,12.0,71,0.00,,,0.00,Wunderground v.1.15,2013-03-13 13:24:00,
2013-03-13 09:29:00,41.6,33.2,29.71,WNW,290,1.0,12.0,72,0.00,,,0.00,Wunderground v.1.15,2013-03-13 13:29:00,
2013-03-13 09:34:00,41.7,33.7,29.72,West,279,6.0,11.0,73,0.00,,,0.00,Wunderground v.1.15,2013-03-13 13:34:00,
2013-03-13 09:39:00,41.9,33.2,29.72,West,273,5.0,11.0,71,0.00,,,0.00,Wunderground v.1.15,2013-03-13 13:39:00,
2013-03-13 09:44:00,42.2,33.8,29.72,NNW,331,10.0,10.0,72,0.00,,,0.00,Wunderground v.1.15,2013-03-13 13:44:00,
2013-03-13 09:50:00,42.6,33.9,29.72,North,360,7.0,7.0,71,0.00,,,0.00,Wunderground v.1.15,2013-03-13 13:50:00,
2013-03-13 09:55:00,42.9,33.8,29.72,NW,306,6.0,9.0,70,0.00,,,0.00,Wunderground v.1.15,2013-03-13 13:55:00,
2013-03-13 10:00:00,43.2,33.7,29.72,WNW,288,11.0,11.0,69,0.00,,,0.00,Wunderground v.1.15,2013-03-13 14:00:00,
2013-03-13 10:05:00,43.3,33.8,29.72,NW,320,4.0,13.0,69,0.00,,,0.00,Wunderground v.1.15,2013-03-13 14:05:00,
2013-03-13 10:10:00,43.5,34.4,29.72,West,260,6.0,6.0,70,0.00,,,0.00,Wunderground v.1.15,2013-03-13 14:10:00,
2013-03-13 10:15:00,43.7,34.6,29.72,NNW,332,6.0,12.0,70,0.00,,,0.00,Wunderground v.1.15,2013-03-13 14:15:00,
2013-03-13 10:20:00,44.0,34.8,29.72,West,268,9.0,9.0,70,0.00,,,0.00,Wunderground v.1.15,2013-03-13 14:20:00,
2013-03-13 10:25:00,44.2,34.3,29.71,NW,321,11.0,12.0,68,0.00,,,0.00,Wunderground v.1.15,2013-03-13 14:25:00,
2013-03-13 10:30:00,44.3,34.0,29.71,NW,309,8.0,10.0,67,0.00,,,0.00,Wunderground v.1.15,2013-03-13 14:30:00,
2013-03-13 10:35:00,44.5,34.2,29.72,WNW,298,5.0,11.0,67,0.00,,,0.00,Wunderground v.1.15,2013-03-13 14:35:00,
2013-03-13 10:40:00,44.8,35.2,29.71,NNW,331,7.0,7.0,69,0.00,,,0.00,Wunderground v.1.15,2013-03-13 14:40:00,
2013-03-13 10:45:00,45.0,34.3,29.71,NW,311,5.0,12.0,66,0.00,,,0.00,Wunderground v.1.15,2013-03-13 14:45:00,
2013-03-13 10:50:00,45.2,34.5,29.71,NW,313,2.0,7.0,66,0.00,,,0.00,Wunderground v.1.15,2013-03-13 14:50:00,
2013-03-13 10:55:00,45.8,35.5,29.70,WNW,297,9.0,11.0,67,0.00,,,0.00,Wunderground v.1.15,2013-03-13 14:55:00,
2013-03-13 11:00:00,46.2,34.7,29.70,NNW,344,4.0,8.0,64,0.00,,,0.00,Wunderground v.1.15,2013-03-13 15:00:00,
2013-03-13 11:05:00,46.5,35.7,29.70,WNW,288,3.0,10.0,66,0.00,,,0.00,Wunderground v.1.15,2013-03-13 15:05:00,
2013-03-13 11:10:00,46.9,35.7,29.70,NW,314,9.0,12.0,65,0.00,,,0.00,Wunderground v.1.15,2013-03-13 15:10:00,
2013-03-13 11:15:00,47.4,36.2,29.70,NNW,330,5.0,13.0,65,0.00,,,0.00,Wunderground v.1.15,2013-03-13 15:15:00,
2013-03-13 11:20:00,47.7,36.1,29.69,West,281,2.0,6.0,64,0.00,,,0.00,Wunderground v.1.15,2013-03-13 15:20:00,
2013-03-13 11:25:00,48.0,35.2,29.69,NW,319,8.0,12.0,61,0.00,,,0.00,Wunderground v.1.15,2013-03-13 15:25:00,
2013-03-13 11:30:00,47.9,35.5,29.70,NW,325,7.0,7.0,62,0.00,,,0.00,Wunderground v.1.15,2013-03-13 15:30:00,
2013-03-13 11:35:00,48.0,36.0,29.69,North,9,4.0,13.0,63,0.00,,,0.00,Wunderground v.1.15,2013-03-13 15:35:00,
2013-03-13 11:40:00,48.4,35.6,29.69,NNW,333,9.0,11.0,61,0.00,,,0.00,Wunderground v.1.15,2013-03-13 15:40:00,
2013-03-13 11:45:00,48.6,34.9,29.70,West,267,4.0,17.0,59,0.00,,,0.00,Wunderground v.1.15,2013-03-13 15:45:00,
2013-03-13 11:50:00,48.6,35.7,29.70,NW,306,8.0,8.0,61,0.00,,,0.00,Wunderground v.1.15,2013-03-13 15:50:00,
2013-03-13 11:55:00,48.6,35.3,29.70,NW,324,11.0,14.0,60,0.00,,,0.00,Wunderground v.1.15,2013-03-13 15:55:00,
2013-03-13 12:00:00,48.4,34.3,29.70,NW,315,6.0,9.0,58,0.00,,,0.00,Wunderground v.1.15,2013-03-13 16:00:00,
2013-03-13 12:05:00,48.3,34.2,29.70,NW,314,9.0,13.0,58,0.00,,,0.00,Wunderground v.1.15,2013-03-13 16:05:00,
2013-03-13 12:10:00,48.4,35.1,29.70,NW,306,7.0,11.0,60,0.00,,,0.00,Wunderground v.1.15,2013-03-13 16:10:00,
2013-03-13 12:15:00,48.6,35.3,29.70,West,277,8.0,15.0,60,0.00,,,0.00,Wunderground v.1.15,2013-03-13 16:15:00,
2013-03-13 12:20:00,49.1,34.9,29.70,NW,313,9.0,11.0,58,0.00,,,0.00,Wunderground v.1.15,2013-03-13 16:20:00,
2013-03-13 12:25:00,49.2,35.0,29.70,West,273,14.0,16.0,58,0.00,,,0.00,Wunderground v.1.15,2013-03-13 16:25:00,
2013-03-13 12:30:00,49.4,34.8,29.70,West,265,1.0,9.0,57,0.00,,,0.00,Wunderground v.1.15,2013-03-13 16:30:00,
2013-03-13 12:35:00,49.6,35.0,29.70,WSW,252,6.0,16.0,57,0.00,,,0.00,Wunderground v.1.15,2013-03-13 16:35:00,
2013-03-13 12:40:00,49.9,34.8,29.70,NW,321,10.0,10.0,56,0.00,,,0.00,Wunderground v.1.15,2013-03-13 16:40:00,
2013-03-13 12:45:00,50.2,35.5,29.70,SW,235,8.0,13.0,57,0.00,,,0.00,Wunderground v.1.15,2013-03-13 16:45:00,
2013-03-13 12:50:00,50.4,35.7,29.69,WSW,253,3.0,10.0,57,0.00,,,0.00,Wunderground v.1.15,2013-03-13 16:50:00,
2013-03-13 12:55:00,50.5,35.4,29.69,NNW,336,7.0,13.0,56,0.00,,,0.00,Wunderground v.1.15,2013-03-13 16:55:00,
2013-03-13 13:00:00,50.6,35.9,29.69,WNW,291,11.0,12.0,57,0.00,,,0.00,Wunderground v.1.15,2013-03-13 17:00:00,
2013-03-13 13:06:00,51.0,34.9,29.69,WNW,282,6.0,15.0,54,0.00,,,0.00,Wunderground v.1.15,2013-03-13 17:06:00,
2013-03-13 13:11:00,51.1,35.5,29.69,NNW,332,12.0,13.0,55,0.00,,,0.00,Wunderground v.1.15,2013-03-13 17:11:00,
2013-03-13 13:16:00,51.0,35.8,29.69,NW,314,7.0,15.0,56,0.00,,,0.00,Wunderground v.1.15,2013-03-13 17:16:00,
2013-03-13 13:21:00,51.2,35.6,29.69,NW,305,5.0,13.0,55,0.00,,,0.00,Wunderground v.1.15,2013-03-13 17:21:00,
2013-03-13 13:26:00,51.5,35.4,29.69,NW,315,6.0,13.0,54,0.00,,,0.00,Wunderground v.1.15,2013-03-13 17:26:00,
2013-03-13 13:32:00,51.4,35.3,29.68,WSW,257,7.0,14.0,54,0.00,,,0.00,Wunderground v.1.15,2013-03-13 17:32:00,
2013-03-13 13:37:00,51.4,34.8,29.68,WNW,284,9.0,14.0,53,0.00,,,0.00,Wunderground v.1.15,2013-03-13 17:37:00,
2013-03-13 13:42:00,51.2,34.6,29.68,West,277,5.0,13.0,53,0.00,,,0.00,Wunderground v.1.15,2013-03-13 17:42:00,
2013-03-13 13:47:00,51.4,34.3,29.68,WNW,291,11.0,14.0,52,0.00,,,0.00,Wunderground v.1.15,2013-03-13 17:47:00,
2013-03-13 13:52:00,51.6,34.5,29.68,West,261,11.0,15.0,52,0.00,,,0.00,Wunderground v.1.15,2013-03-13 17:52:00,
2013-03-13 13:57:00,51.7,34.1,29.68,SW,221,9.0,19.0,51,0.00,,,0.00,Wunderground v.1.15,2013-03-13 17:57:00,
2013-03-13 14:02:00,51.6,33.6,29.67,West,259,2.0,11.0,50,0.00,,,0.00,Wunderground v.1.15,2013-03-13 18:02:00,
2013-03-13 14:07:00,51.8,34.7,29.67,NNW,333,7.0,13.0,52,0.00,,,0.00,Wunderground v.1.15,2013-03-13 18:07:00,
2013-03-13 14:12:00,52.0,34.4,29.67,NW,321,15.0,18.0,51,0.00,,,0.00,Wunderground v.1.15,2013-03-13 18:12:00,
2013-03-13 14:17:00,51.7,34.1,29.67,NW,310,13.0,18.0,51,0.00,,,0.00,Wunderground v.1.15,2013-03-13 18:17:00,
2013-03-13 14:22:00,51.6,32.5,29.67,WNW,298,8.0,17.0,48,0.00,,,0.00,Wunderground v.1.15,2013-03-13 18:22:00,
2013-03-13 14:27:00,51.3,32.8,29.67,NW,310,6.0,19.0,49,0.00,,,0.00,Wunderground v.1.15,2013-03-13 18:27:00,
2013-03-13 14:32:00,51.5,33.5,29.67,WSW,251,5.0,13.0,50,0.00,,,0.00,Wunderground v.1.15,2013-03-13 18:32:00,
2013-03-13 14:37:00,51.7,32.6,29.67,West,260,6.0,13.0,48,0.00,,,0.00,Wunderground v.1.15,2013-03-13 18:37:00,
2013-03-13 14:42:00,51.6,32.5,29.67,NW,315,3.0,11.0,48,0.00,,,0.00,Wunderground v.1.15,2013-03-13 18:42:00,
2013-03-13 14:47:00,51.9,32.8,29.67,WSW,248,5.0,13.0,48,0.00,,,0.00,Wunderground v.1.15,2013-03-13 18:47:00,
2013-03-13 14:52:00,52.3,33.2,29.67,WNW,287,12.0,15.0,48,0.00,,,0.00,Wunderground v.1.15,2013-03-13 18:52:00,
2013-03-13 14:57:00,52.3,32.1,29.67,West,271,3.0,18.0,46,0.00,,,0.00,Wunderground v.1.15,2013-03-13 18:57:00,
2013-03-13 15:02:00,52.3,32.1,29.67,West,279,13.0,13.0,46,0.00,,,0.00,Wunderground v.1.15,2013-03-13 19:02:00,
2013-03-13 15:07:00,52.1,31.9,29.67,WSW,246,8.0,16.0,46,0.00,,,0.00,Wunderground v.1.15,2013-03-13 19:07:00,
2013-03-13 15:12:00,51.7,31.0,29.67,West,279,9.0,19.0,45,0.00,,,0.00,Wunderground v.1.15,2013-03-13 19:12:00,
2013-03-13 15:17:00,51.3,31.2,29.67,NNW,337,8.0,19.0,46,0.00,,,0.00,Wunderground v.1.15,2013-03-13 19:17:00,
2013-03-13 15:22:00,51.1,31.0,29.67,WSW,250,13.0,13.0,46,0.00,,,0.00,Wunderground v.1.15,2013-03-13 19:22:00,
2013-03-13 15:27:00,51.2,30.0,29.67,NNW,329,8.0,15.0,44,0.00,,,0.00,Wunderground v.1.15,2013-03-13 19:27:00,
2013-03-13 15:32:00,51.1,30.5,29.67,WNW,295,9.0,12.0,45,0.00,,,0.00,Wunderground v.1.15,2013-03-13 19:32:00,
2013-03-13 15:38:00,51.2,29.4,29.67,NW,306,11.0,13.0,43,0.00,,,0.00,Wunderground v.1.15,2013-03-13 19:38:00,
2013-03-13 15:43:00,51.1,29.9,29.67,NW,306,5.0,14.0,44,0.00,,,0.00,Wunderground v.1.15,2013-03-13 19:43:00,
2013-03-13 15:48:00,51.0,29.3,29.67,West,277,15.0,18.0,43,0.00,,,0.00,Wunderground v.1.15,2013-03-13 19:48:00,
2013-03-13 15:53:00,51.0,29.3,29.67,WNW,296,5.0,18.0,43,0.00,,,0.00,Wunderground v.1.15,2013-03-13 19:53:00,
2013-03-13 15:58:00,51.0,28.7,29.66,WNW,290,10.0,18.0,42,0.00,,,0.00,Wunderground v.1.15,2013-03-13 19:58:00,
2013-03-13 16:03:00,50.9,28.0,29.66,WNW,288,12.0,17.0,41,0.00,,,0.00,Wunderground v.1.15,2013-03-13 20:03:00,
2013-03-13 16:08:00,50.6,28.3,29.66,WSW,257,8.0,17.0,42,0.00,,,0.00,Wunderground v.1.15,2013-03-13 20:08:00,
2013-03-13 16:13:00,50.7,27.8,29.66,North,355,7.0,17.0,41,0.00,,,0.00,Wunderground v.1.15,2013-03-13 20:13:00,
2013-03-13 16:18:00,50.6,27.1,29.66,WNW,303,15.0,17.0,40,0.00,,,0.00,Wunderground v.1.15,2013-03-13 20:18:00,
2013-03-13 16:23:00,50.3,26.9,29.66,NW,309,7.0,14.0,40,0.00,,,0.00,Wunderground v.1.15,2013-03-13 20:23:00,
2013-03-13 16:28:00,50.3,27.5,29.66,NNW,338,5.0,14.0,41,0.00,,,0.00,Wunderground v.1.15,2013-03-13 20:28:00,
2013-03-13 16:33:00,50.2,26.8,29.66,WNW,303,6.0,15.0,40,0.00,,,0.00,Wunderground v.1.15,2013-03-13 20:33:00,
2013-03-13 16:38:00,50.2,27.4,29.66,NW,325,4.0,15.0,41,0.00,,,0.00,Wunderground v.1.15,2013-03-13 20:38:00,
2013-03-13 16:43:00,50.2,27.4,29.66,West,260,3.0,12.0,41,0.00,,,0.00,Wunderground v.1.15,2013-03-13 20:43:00,
2013-03-13 16:48:00,50.2,27.4,29.66,West,263,5.0,14.0,41,0.00,,,0.00,Wunderground v.1.15,2013-03-13 20:48:00,
2013-03-13 16:53:00,50.3,26.9,29.66,NW,314,4.0,12.0,40,0.00,,,0.00,Wunderground v.1.15,2013-03-13 20:53:00,
2013-03-13 16:58:00,50.3,26.3,29.66,NNW,330,11.0,18.0,39,0.00,,,0.00,Wunderground v.1.15,2013-03-13 20:58:00,
2013-03-13 17:03:00,50.1,26.1,29.67,WNW,299,7.0,14.0,39,0.00,,,0.00,Wunderground v.1.15,2013-03-13 21:03:00,
2013-03-13 17:08:00,50.0,26.6,29.66,West,278,6.0,14.0,40,0.00,,,0.00,Wunderground v.1.15,2013-03-13 21:08:00,
2013-03-13 17:13:00,49.9,26.5,29.66,WNW,283,4.0,12.0,40,0.00,,,0.00,Wunderground v.1.15,2013-03-13 21:13:00,
2013-03-13 17:18:00,49.9,26.5,29.67,West,276,5.0,16.0,40,0.00,,,0.00,Wunderground v.1.15,2013-03-13 21:18:00,
2013-03-13 17:23:00,49.8,25.2,29.67,West,271,16.0,17.0,38,0.00,,,0.00,Wunderground v.1.15,2013-03-13 21:23:00,
2013-03-13 17:28:00,49.6,26.2,29.67,NW,325,5.0,17.0,40,0.00,,,0.00,Wunderground v.1.15,2013-03-13 21:28:00,
2013-03-13 17:33:00,49.4,25.4,29.67,NW,317,6.0,13.0,39,0.00,,,0.00,Wunderground v.1.15,2013-03-13 21:33:00,
2013-03-13 17:38:00,49.2,25.3,29.67,WNW,290,8.0,17.0,39,0.00,,,0.00,Wunderground v.1.15,2013-03-13 21:38:00,
2013-03-13 17:43:00,49.0,23.8,29.67,WNW,290,2.0,13.0,37,0.00,,,0.00,Wunderground v.1.15,2013-03-13 21:43:00,
2013-03-13 17:48:00,48.8,24.3,29.67,West,267,5.0,13.0,38,0.00,,,0.00,Wunderground v.1.15,2013-03-13 21:48:00,
2013-03-13 17:53:00,48.6,23.5,29.67,NW,313,6.0,12.0,37,0.00,,,0.00,Wunderground v.1.15,2013-03-13 21:53:00,
2013-03-13 17:59:00,48.4,22.6,29.67,West,276,8.0,16.0,36,0.00,,,0.00,Wunderground v.1.15,2013-03-13 21:59:00,
2013-03-13 18:04:00,48.1,21.7,29.67,NW,308,9.0,15.0,35,0.00,,,0.00,Wunderground v.1.15,2013-03-13 22:04:00,
2013-03-13 18:09:00,47.9,22.8,29.67,WNW,296,10.0,15.0,37,0.00,,,0.00,Wunderground v.1.15,2013-03-13 22:09:00,
2013-03-13 18:14:00,47.6,22.6,29.68,NNW,331,9.0,18.0,37,0.00,,,0.00,Wunderground v.1.15,2013-03-13 22:14:00,
2013-03-13 18:19:00,47.4,23.0,29.68,NW,323,9.0,18.0,38,0.00,,,0.00,Wunderground v.1.15,2013-03-13 22:19:00,
2013-03-13 18:24:00,47.1,23.4,29.68,NW,309,7.0,14.0,39,0.00,,,0.00,Wunderground v.1.15,2013-03-13 22:24:00,
2013-03-13 18:29:00,46.9,23.2,29.68,WNW,300,8.0,15.0,39,0.00,,,0.00,Wunderground v.1.15,2013-03-13 22:29:00,
2013-03-13 18:34:00,46.7,22.4,29.69,NW,322,10.0,17.0,38,0.00,,,0.00,Wunderground v.1.15,2013-03-13 22:34:00,
2013-03-13 18:39:00,46.5,22.8,29.69,WNW,294,8.0,17.0,39,0.00,,,0.00,Wunderground v.1.15,2013-03-13 22:39:00,
2013-03-13 18:44:00,46.3,22.7,29.69,WNW,295,10.0,17.0,39,0.00,,,0.00,Wunderground v.1.15,2013-03-13 22:44:00,
2013-03-13 18:49:00,46.0,21.8,29.70,NW,316,13.0,18.0,38,0.00,,,0.00,Wunderground v.1.15,2013-03-13 22:49:00,
2013-03-13 18:54:00,45.8,22.2,29.70,NW,325,7.0,18.0,39,0.00,,,0.00,Wunderground v.1.15,2013-03-13 22:54:00,
2013-03-13 18:59:00,45.6,22.6,29.70,WNW,295,9.0,18.0,40,0.00,,,0.00,Wunderground v.1.15,2013-03-13 22:59:00,
2013-03-13 19:04:00,45.3,23.0,29.70,WNW,287,6.0,12.0,41,0.00,,,0.00,Wunderground v.1.15,2013-03-13 23:04:00,
2013-03-13 19:09:00,45.1,22.8,29.71,NNW,330,7.0,13.0,41,0.00,,,0.00,Wunderground v.1.15,2013-03-13 23:09:00,
2013-03-13 19:14:00,44.9,23.2,29.71,WSW,248,3.0,12.0,42,0.00,,,0.00,Wunderground v.1.15,2013-03-13 23:14:00,
2013-03-13 19:19:00,44.6,22.9,29.71,WNW,291,13.0,13.0,42,0.00,,,0.00,Wunderground v.1.15,2013-03-13 23:19:00,
2013-03-13 19:24:00,44.3,22.6,29.71,WNW,290,10.0,16.0,42,0.00,,,0.00,Wunderground v.1.15,2013-03-13 23:24:00,
2013-03-13 19:29:00,44.2,23.1,29.71,WNW,290,5.0,16.0,43,0.00,,,0.00,Wunderground v.1.15,2013-03-13 23:29:00,
2013-03-13 19:34:00,43.9,22.8,29.72,WNW,283,3.0,18.0,43,0.00,,,0.00,Wunderground v.1.15,2013-03-13 23:34:00,
2013-03-13 19:39:00,43.8,22.7,29.72,NNW,329,7.0,18.0,43,0.00,,,0.00,Wunderground v.1.15,2013-03-13 23:39:00,
2013-03-13 19:44:00,43.6,23.1,29.72,NW,315,5.0,10.0,44,0.00,,,0.00,Wunderground v.1.15,2013-03-13 23:44:00,
2013-03-13 19:49:00,43.3,22.3,29.72,West,268,10.0,13.0,43,0.00,,,0.00,Wunderground v.1.15,2013-03-13 23:49:00,
2013-03-13 19:54:00,43.2,22.2,29.72,WNW,296,7.0,12.0,43,0.00,,,0.00,Wunderground v.1.15,2013-03-13 23:54:00,
2013-03-13 19:59:00,43.0,22.5,29.73,NW,323,3.0,12.0,44,0.00,,,0.00,Wunderground v.1.15,2013-03-13 23:59:00,
2013-03-13 20:04:00,42.8,22.9,29.73,NW,316,2.0,9.0,45,0.00,,,0.00,Wunderground v.1.15,2013-03-14 00:04:00,
2013-03-13 20:09:00,42.6,22.7,29.73,WNW,300,4.0,10.0,45,0.00,,,0.00,Wunderground v.1.15,2013-03-14 00:09:00,
2013-03-13 20:14:00,42.4,23.1,29.73,WNW,298,3.0,8.0,46,0.00,,,0.00,Wunderground v.1.15,2013-03-14 00:14:00,
2013-03-13 20:19:00,42.2,22.9,29.73,WSW,256,4.0,9.0,46,0.00,,,0.00,Wunderground v.1.15,2013-03-14 00:19:00,
2013-03-13 20:24:00,42.0,22.7,29.74,WNW,298,5.0,11.0,46,0.00,,,0.00,Wunderground v.1.15,2013-03-14 00:24:00,
2013-03-13 20:30:00,41.8,23.0,29.74,WSW,257,2.0,4.0,47,0.00,,,0.00,Wunderground v.1.15,2013-03-14 00:30:00,
2013-03-13 20:35:00,41.7,22.9,29.74,WNW,286,4.0,7.0,47,0.00,,,0.00,Wunderground v.1.15,2013-03-14 00:35:00,
2013-03-13 20:40:00,41.5,22.2,29.74,West,269,1.0,3.0,46,0.00,,,0.00,Wunderground v.1.15,2013-03-14 00:40:00,
2013-03-13 20:45:00,41.3,22.6,29.74,WNW,293,2.0,8.0,47,0.00,,,0.00,Wunderground v.1.15,2013-03-14 00:45:00,
2013-03-13 20:50:00,41.1,22.9,29.74,West,269,5.0,5.0,48,0.00,,,0.00,Wunderground v.1.15,2013-03-14 00:50:00,
2013-03-13 20:55:00,40.9,22.2,29.74,WNW,287,3.0,9.0,47,0.00,,,0.00,Wunderground v.1.15,2013-03-14 00:55:00,
2013-03-13 21:00:00,40.7,22.0,29.74,NW,323,2.0,6.0,47,0.00,,,0.00,Wunderground v.1.15,2013-03-14 01:00:00,
2013-03-13 21:05:00,40.6,22.4,29.74,NW,325,4.0,6.0,48,0.00,,,0.00,Wunderground v.1.15,2013-03-14 01:05:00,
2013-03-13 21:10:00,40.5,21.3,29.74,WNW,290,1.0,3.0,46,0.00,,,0.00,Wunderground v.1.15,2013-03-14 01:10:00,
2013-03-13 21:15:00,40.4,21.7,29.75,West,276,1.0,4.0,47,0.00,,,0.00,Wunderground v.1.15,2013-03-14 01:15:00,
2013-03-13 21:20:00,40.2,21.6,29.74,NW,305,1.0,2.0,47,0.00,,,0.00,Wunderground v.1.15,2013-03-14 01:20:00,
2013-03-13 21:25:00,40.1,21.5,29.74,WNW,298,1.0,5.0,47,0.00,,,0.00,Wunderground v.1.15,2013-03-14 01:25:00,
2013-03-13 21:30:00,40.0,21.4,29.75,WNW,287,0.0,2.0,47,0.00,,,0.00,Wunderground v.1.15,2013-03-14 01:30:00,
2013-03-13 21:35:00,39.9,21.3,29.75,WNW,289,0.0,4.0,47,0.00,,,0.00,Wunderground v.1.15,2013-03-14 01:35:00,
2013-03-13 21:40:00,39.8,21.2,29.75,West,280,1.0,2.0,47,0.00,,,0.00,Wunderground v.1.15,2013-03-14 01:40:00,
2013-03-13 21:45:00,39.6,21.0,29.75,West,280,3.0,5.0,47,0.00,,,0.00,Wunderground v.1.15,2013-03-14 01:45:00,
2013-03-13 21:50:00,39.5,20.9,29.75,WNW,288,1.0,3.0,47,0.00,,,0.00,Wunderground v.1.15,2013-03-14 01:50:00,
2013-03-13 21:55:00,39.4,21.3,29.75,West,277,2.0,4.0,48,0.00,,,0.00,Wunderground v.1.15,2013-03-14 01:55:00,
2013-03-13 22:00:00,39.3,21.2,29.75,WNW,293,2.0,4.0,48,0.00,,,0.00,Wunderground v.1.15,2013-03-14 02:00:00,
2013-03-13 22:05:00,39.2,21.1,29.75,NW,306,3.0,6.0,48,0.00,,,0.00,Wunderground v.1.15,2013-03-14 02:05:00,
2013-03-13 22:10:00,39.1,21.0,29.75,West,270,3.0,6.0,48,0.00,,,0.00,Wunderground v.1.15,2013-03-14 02:10:00,
2013-03-13 22:15:00,38.9,21.3,29.75,WNW,292,2.0,6.0,49,0.00,,,0.00,Wunderground v.1.15,2013-03-14 02:15:00,
2013-03-13 22:20:00,38.7,21.2,29.75,WNW,298,5.0,8.0,49,0.00,,,0.00,Wunderground v.1.15,2013-03-14 02:20:00,
2013-03-13 22:25:00,38.5,21.0,29.75,NW,304,3.0,8.0,49,0.00,,,0.00,Wunderground v.1.15,2013-03-14 02:25:00,
2013-03-13 22:30:00,38.4,20.9,29.75,NW,309,5.0,5.0,49,0.00,,,0.00,Wunderground v.1.15,2013-03-14 02:30:00,
2013-03-13 22:35:00,38.3,21.3,29.74,WNW,296,4.0,6.0,50,0.00,,,0.00,Wunderground v.1.15,2013-03-14 02:35:00,
2013-03-13 22:40:00,38.3,21.3,29.74,WNW,300,3.0,5.0,50,0.00,,,0.00,Wunderground v.1.15,2013-03-14 02:40:00,
2013-03-13 22:45:00,38.2,20.7,29.74,WNW,286,0.0,5.0,49,0.00,,,0.00,Wunderground v.1.15,2013-03-14 02:45:00,
2013-03-13 22:50:00,38.1,20.6,29.75,WNW,291,3.0,3.0,49,0.00,,,0.00,Wunderground v.1.15,2013-03-14 02:50:00,
2013-03-13 22:55:00,38.1,21.1,29.74,NW,309,2.0,4.0,50,0.00,,,0.00,Wunderground v.1.15,2013-03-14 02:55:00,
2013-03-13 23:00:00,38.0,21.0,29.74,WNW,295,2.0,3.0,50,0.00,,,0.00,Wunderground v.1.15,2013-03-14 03:00:00,
2013-03-13 23:06:00,37.9,20.9,29.74,NW,311,1.0,4.0,50,0.00,,,0.00,Wunderground v.1.15,2013-03-14 03:06:00,
2013-03-13 23:11:00,37.8,20.8,29.74,NNW,331,1.0,3.0,50,0.00,,,0.00,Wunderground v.1.15,2013-03-14 03:11:00,
2013-03-13 23:16:00,37.8,20.3,29.73,NNW,333,1.0,4.0,49,0.00,,,0.00,Wunderground v.1.15,2013-03-14 03:16:00,
2013-03-13 23:21:00,37.7,20.7,29.73,NNW,334,1.0,3.0,50,0.00,,,0.00,Wunderground v.1.15,2013-03-14 03:21:00,
2013-03-13 23:26:00,37.5,20.5,29.73,NW,323,3.0,5.0,50,0.00,,,0.00,Wunderground v.1.15,2013-03-14 03:26:00,
2013-03-13 23:31:00,37.5,20.5,29.73,NW,309,2.0,3.0,50,0.00,,,0.00,Wunderground v.1.15,2013-03-14 03:31:00,
2013-03-13 23:36:00,37.4,20.4,29.74,West,262,2.0,6.0,50,0.00,,,0.00,Wunderground v.1.15,2013-03-14 03:36:00,
2013-03-13 23:41:00,37.2,20.7,29.73,West,269,1.0,2.0,51,0.00,,,0.00,Wunderground v.1.15,2013-03-14 03:41:00,
2013-03-13 23:46:00,37.1,21.1,29.74,West,266,2.0,7.0,52,0.00,,,0.00,Wunderground v.1.15,2013-03-14 03:46:00,
2013-03-13 23:51:00,36.9,20.9,29.74,WNW,292,4.0,4.0,52,0.00,,,0.00,Wunderground v.1.15,2013-03-14 03:51:00,
2013-03-13 23:56:00,36.8,20.8,29.73,WNW,293,5.0,7.0,52,0.00,,,0.00,Wunderground v.1.15,2013-03-14 03:56:00,